Vici, Oklahoma
Current Conditions -  °F | °C
As of 5:55 PM on Monday 20 Oct 2014 (Local Time) from KWWR Reporting Station
Clear Clear  
Wind Chill: 77°   Ceiling: Unl
Heat Index: 79°   Visibility: 10mi
Dew Point: 57°   Wind: 8mph
Humidity: 50%   Direction: 70°ENE
Pressure: 30.07"   Gusts: NA
Location:  36.15°N, 99.3°W
Report Text: KWWR 202255Z AUTO 07007KT 10SM CLR 25/14 A3007 RMK AO2
Loading
Personal Weather Stations






























Interactive Weather Map
Tropical Storm Tracking
New forecast layout! Learn more

10-Day Weather Forecast

Advertisements
Track Severe Weather on mobile